Time;durP1;ratioP1;P1;durP2;ratioP2;P2;SDS_P1;SDS_P2;PMS_P1;PMS_P2;Temp;Humidity;BMP_temperature;BMP_pressure;BME280_temperature;BME280_humidity;BME280_pressure;Samples;Min_cycle;Max_cycle;Signal;HPM_P1;HPM_P2
2022/07/29 01:42:44;;;;;;;4.97;3.83;;;13.90;99.90;;;;;;4916815;28;94700;-30
2022/07/29 01:45:15;;;;;;;4.57;3.95;;;14.00;99.90;;;;;;4920091;28;94665;-30
2022/07/29 01:48:06;;;;;;;3.90;3.20;;;14.00;99.90;;;;;;4920168;28;95605;-33
2022/07/29 01:50:46;;;;;;;7.78;3.55;;;14.00;99.90;;;;;;4922027;28;93192;-30
2022/07/29 01:53:14;;;;;;;7.25;3.78;;;14.00;99.90;;;;;;4918462;28;92990;-30
2022/07/29 01:55:44;;;;;;;3.80;3.17;;;14.00;99.90;;;;;;4920750;28;94578;-29
2022/07/29 01:58:11;;;;;;;3.08;2.60;;;14.00;99.90;;;;;;4920110;28;94237;-30
2022/07/29 02:00:38;;;;;;;3.80;3.40;;;14.00;99.90;;;;;;4920638;28;94349;-32
2022/07/29 02:03:09;;;;;;;3.60;3.13;;;14.00;99.90;;;;;;4920711;28;92115;-29
2022/07/29 02:05:37;;;;;;;4.32;3.45;;;14.00;99.90;;;;;;4920380;28;93854;-29
2022/07/29 02:08:05;;;;;;;4.80;3.22;;;14.10;99.90;;;;;;4920338;28;93846;-30
2022/07/29 02:10:33;;;;;;;3.20;2.90;;;14.00;99.90;;;;;;4920773;28;93990;-33
2022/07/29 02:12:59;;;;;;;;;;;14.10;99.90;;;;;;4920685;28;93949;-31
2022/07/29 02:15:27;;;;;;;7.30;3.88;;;14.10;99.90;;;;;;4921421;28;95403;-30
2022/07/29 02:18:07;;;;;;;3.70;3.33;;;14.10;99.90;;;;;;4919991;28;94670;-32
2022/07/29 02:20:34;;;;;;;4.72;2.95;;;14.10;99.90;;;;;;4920340;28;94953;-31
2022/07/29 02:23:02;;;;;;;4.85;3.00;;;14.10;99.90;;;;;;4919841;28;93633;-34
2022/07/29 02:25:28;;;;;;;4.25;3.90;;;14.10;99.90;;;;;;4920055;28;95703;-30
2022/07/29 02:27:55;;;;;;;9.35;3.20;;;14.10;99.90;;;;;;4919079;28;94426;-31
2022/07/29 02:30:22;;;;;;;3.38;3.08;;;14.10;99.90;;;;;;4920173;28;92942;-33
2022/07/29 02:32:50;;;;;;;4.00;3.03;;;14.00;99.90;;;;;;4919920;28;92983;-30
2022/07/29 02:35:16;;;;;;;3.65;3.38;;;14.00;99.90;;;;;;4919931;28;95020;-30
2022/07/29 02:37:44;;;;;;;3.78;3.47;;;14.00;99.90;;;;;;4919622;28;94492;-32
2022/07/29 02:40:11;;;;;;;4.60;3.53;;;14.00;99.90;;;;;;4920145;28;92296;-31
2022/07/29 02:42:41;;;;;;;3.90;3.50;;;14.00;99.90;;;;;;4919675;28;92687;-31
2022/07/29 02:45:07;;;;;;;5.72;2.80;;;14.00;99.90;;;;;;4919550;28;93608;-30
2022/07/29 02:47:41;;;;;;;5.43;4.03;;;14.00;99.90;;;;;;4919762;28;94680;-30
2022/07/29 02:50:15;;;;;;;5.55;3.92;;;14.00;99.90;;;;;;4919768;28;93368;-32
2022/07/29 02:52:44;;;;;;;3.60;3.05;;;14.00;99.90;;;;;;4920007;28;93237;-29
2022/07/29 02:55:30;;;;;;;8.93;3.80;;;14.00;99.90;;;;;;4919898;28;94540;-32
2022/07/29 02:58:18;;;;;;;3.10;2.85;;;14.00;99.90;;;;;;4919635;28;94041;-30
2022/07/29 03:00:47;;;;;;;3.53;3.10;;;14.00;99.90;;;;;;4919385;28;92145;-29
2022/07/29 03:03:16;;;;;;;5.32;3.10;;;14.00;99.90;;;;;;4918467;28;93814;-29
2022/07/29 03:05:41;;;;;;;5.38;3.47;;;14.00;99.90;;;;;;4919270;28;94795;-34
2022/07/29 03:08:10;;;;;;;5.07;3.35;;;13.90;99.90;;;;;;4920091;28;94731;-30
2022/07/29 03:10:38;;;;;;;2.58;2.38;;;13.90;99.90;;;;;;4920124;28;93842;-30
2022/07/29 03:13:04;;;;;;;;;;;13.90;99.90;;;;;;4919869;28;93118;-32
2022/07/29 03:15:31;;;;;;;8.07;2.78;;;13.90;99.90;;;;;;4920249;28;94615;-30
2022/07/29 03:17:58;;;;;;;4.97;3.03;;;13.90;99.90;;;;;;4919617;28;94107;-30
2022/07/29 03:20:23;;;;;;;4.05;3.65;;;13.90;99.90;;;;;;4919505;28;91372;-33
2022/07/29 03:22:49;;;;;;;5.88;4.35;;;13.90;99.90;;;;;;4919135;28;93047;-30
2022/07/29 03:25:18;;;;;;;3.15;2.85;;;13.90;99.90;;;;;;4919650;28;95014;-28
2022/07/29 03:27:44;;;;;;;6.38;3.85;;;13.90;99.90;;;;;;4918673;28;94161;-30
2022/07/29 03:30:11;;;;;;;5.72;3.28;;;13.90;99.90;;;;;;4919025;28;94432;-34
2022/07/29 03:32:37;;;;;;;3.83;3.13;;;13.90;99.90;;;;;;4919470;28;92604;-30
2022/07/29 03:35:04;;;;;;;3.58;3.00;;;13.90;99.90;;;;;;4918849;28;96496;-29
2022/07/29 03:37:33;;;;;;;5.00;2.90;;;13.90;99.90;;;;;;4918565;28;94190;-32
2022/07/29 03:40:01;;;;;;;3.30;3.00;;;13.80;99.90;;;;;;4919083;28;94830;-34
2022/07/29 03:42:32;;;;;;;3.00;2.80;;;13.80;99.90;;;;;;4919093;28;92934;-29
2022/07/29 03:45:07;;;;;;;4.28;2.92;;;13.80;99.90;;;;;;4918959;28;93288;-30
2022/07/29 03:47:36;;;;;;;3.97;3.30;;;13.80;99.90;;;;;;4918820;28;94659;-29
2022/07/29 03:50:13;;;;;;;3.03;2.72;;;13.80;99.90;;;;;;4919168;28;93414;-31
2022/07/29 03:52:40;;;;;;;5.20;3.23;;;13.80;99.90;;;;;;4918327;28;94526;-32
2022/07/29 03:55:06;;;;;;;3.53;3.22;;;13.80;99.90;;;;;;4918712;28;94687;-36
2022/07/29 03:57:33;;;;;;;5.40;3.67;;;13.90;99.90;;;;;;4918820;28;94220;-30
2022/07/29 04:00:01;;;;;;;7.60;2.78;;;13.80;99.90;;;;;;4918347;28;94272;-30
2022/07/29 04:02:27;;;;;;;5.30;3.25;;;13.80;99.90;;;;;;4917916;28;93993;-33
2022/07/29 04:04:52;;;;;;;3.97;3.35;;;13.80;99.90;;;;;;4918530;28;94900;-32
2022/07/29 04:07:18;;;;;;;4.22;3.28;;;13.80;99.90;;;;;;4918111;28;95640;-33
2022/07/29 04:09:44;;;;;;;6.75;3.60;;;13.80;99.90;;;;;;4919076;28;93192;-30
2022/07/29 04:12:10;;;;;;;3.90;3.33;;;13.80;99.90;;;;;;4901134;28;93310;-30
2022/07/29 04:14:36;;;;;;;5.40;3.60;;;13.80;99.90;;;;;;4918377;28;95486;-30
2022/07/29 04:17:03;;;;;;;4.90;3.47;;;13.80;99.90;;;;;;4917943;28;96027;-33
2022/07/29 04:19:29;;;;;;;3.58;3.25;;;13.80;99.90;;;;;;4918129;28;94442;-30
2022/07/29 04:21:55;;;;;;;3.42;3.13;;;13.80;99.90;;;;;;4917937;28;94079;-30
2022/07/29 04:24:20;;;;;;;3.25;3.00;;;13.80;99.90;;;;;;4918563;28;94806;-30
2022/07/29 04:26:46;;;;;;;3.70;3.35;;;13.80;99.90;;;;;;4917831;28;94310;-32
2022/07/29 04:29:14;;;;;;;9.90;3.03;;;13.80;99.90;;;;;;4918046;28;94699;-32
2022/07/29 04:31:40;;;;;;;3.97;3.35;;;13.80;99.90;;;;;;4918785;28;92201;-29
2022/07/29 04:34:05;;;;;;;4.43;3.30;;;13.80;99.90;;;;;;4917578;28;94292;-34
2022/07/29 04:36:31;;;;;;;4.25;3.10;;;13.80;99.90;;;;;;4918175;28;93854;-31
2022/07/29 04:38:57;;;;;;;5.97;3.55;;;13.80;99.90;;;;;;4918022;28;94655;-32
2022/07/29 04:41:23;;;;;;;6.68;2.88;;;13.80;99.90;;;;;;4916008;28;93103;-30
2022/07/29 04:43:49;;;;;;;2.85;2.45;;;13.80;99.90;;;;;;4918224;28;95293;-32
2022/07/29 04:46:14;;;;;;;2.88;2.38;;;13.80;99.90;;;;;;4917204;28;94825;-33
2022/07/29 04:48:40;;;;;;;4.07;2.75;;;13.80;99.90;;;;;;4918599;28;93645;-30
2022/07/29 04:51:06;;;;;;;3.58;3.28;;;13.80;99.90;;;;;;4916879;28;93140;-33
2022/07/29 04:53:31;;;;;;;4.15;3.22;;;13.80;99.90;;;;;;4917707;28;94851;-32
2022/07/29 04:55:57;;;;;;;6.07;3.92;;;13.80;99.90;;;;;;4917921;28;95118;-29
2022/07/29 04:58:23;;;;;;;7.20;4.05;;;13.90;99.90;;;;;;4917967;28;93013;-30
2022/07/29 05:00:49;;;;;;;3.90;3.05;;;13.90;99.90;;;;;;4918093;28;92796;-31
2022/07/29 05:03:15;;;;;;;3.28;2.97;;;13.90;99.90;;;;;;4917550;28;95659;-31
2022/07/29 05:05:40;;;;;;;3.85;3.47;;;13.90;99.90;;;;;;4916910;28;95647;-31
2022/07/29 05:08:06;;;;;;;5.72;3.75;;;14.00;99.90;;;;;;4918978;28;93515;-32
2022/07/29 05:10:33;;;;;;;4.13;3.33;;;14.00;99.90;;;;;;4918504;28;92551;-29
2022/07/29 05:12:59;;;;;;;3.70;2.80;;;14.00;99.90;;;;;;4917646;28;94904;-29
2022/07/29 05:15:24;;;;;;;6.00;3.45;;;14.00;99.90;;;;;;4908677;28;94805;-29
2022/07/29 05:17:50;;;;;;;3.45;2.83;;;14.10;99.90;;;;;;4917003;28;93035;-32
2022/07/29 05:20:16;;;;;;;4.47;2.78;;;14.10;99.90;;;;;;4917578;28;93459;-30
2022/07/29 05:22:41;;;;;;;4.93;3.35;;;14.20;99.90;;;;;;4917846;28;94844;-30
2022/07/29 05:25:08;;;;;;;5.28;4.10;;;14.20;99.90;;;;;;4918094;28;93705;-30
2022/07/29 05:27:35;;;;;;;4.32;2.88;;;14.30;99.90;;;;;;4918251;28;93099;-32
2022/07/29 05:30:01;;;;;;;3.83;2.47;;;14.40;99.90;;;;;;4916331;28;94191;-29
2022/07/29 05:32:26;;;;;;;3.05;2.85;;;14.50;99.90;;;;;;4916155;28;95253;-32
2022/07/29 05:34:52;;;;;;;5.00;2.63;;;14.50;99.90;;;;;;4915032;28;94428;-31
2022/07/29 05:37:21;;;;;;;4.53;3.00;;;14.60;99.90;;;;;;4915442;28;93653;-31
2022/07/29 05:39:46;;;;;;;4.47;2.92;;;14.70;99.90;;;;;;4915585;28;92747;-31
2022/07/29 05:42:12;;;;;;;5.05;2.90;;;14.70;99.90;;;;;;4914441;28;94943;-31
2022/07/29 05:44:39;;;;;;;9.88;3.75;;;14.70;99.90;;;;;;4900196;28;94351;-35
2022/07/29 05:47:04;;;;;;;6.00;3.15;;;14.80;99.90;;;;;;4916263;28;92217;-29
2022/07/29 05:49:30;;;;;;;4.82;3.47;;;14.80;99.90;;;;;;4914655;28;94525;-33
2022/07/29 05:51:56;;;;;;;4.25;3.85;;;14.90;99.90;;;;;;4914684;28;93607;-30
2022/07/29 05:54:21;;;;;;;4.38;2.80;;;14.90;99.90;;;;;;4913801;28;94548;-29
2022/07/29 05:56:47;;;;;;;6.50;3.08;;;14.90;99.90;;;;;;4915843;28;92379;-34
2022/07/29 05:59:12;;;;;;;4.30;2.45;;;14.90;99.90;;;;;;4914713;28;94555;-29
2022/07/29 06:01:39;;;;;;;3.38;3.08;;;14.90;99.90;;;;;;4916574;28;94751;-31
2022/07/29 06:04:07;;;;;;;3.13;2.53;;;14.90;99.90;;;;;;4918310;28;94712;-33
2022/07/29 06:06:34;;;;;;;3.10;2.80;;;14.90;99.90;;;;;;4923317;28;93893;-29
2022/07/29 06:09:00;;;;;;;3.70;3.35;;;14.90;99.90;;;;;;4918996;28;93668;-31
2022/07/29 06:11:26;;;;;;;3.40;3.10;;;15.00;99.90;;;;;;4923825;28;94056;-32
2022/07/29 06:13:52;;;;;;;4.22;3.05;;;15.10;99.90;;;;;;4923323;28;93718;-32
2022/07/29 06:16:18;;;;;;;3.78;3.17;;;15.10;99.90;;;;;;4922956;28;92285;-32
2022/07/29 06:18:44;;;;;;;4.53;3.30;;;15.20;99.90;;;;;;4921467;28;95166;-30
2022/07/29 06:21:10;;;;;;;6.07;2.60;;;15.30;99.90;;;;;;4917869;28;94650;-35
2022/07/29 06:23:37;;;;;;;2.60;2.40;;;15.40;99.90;;;;;;4924120;28;93370;-32
2022/07/29 06:26:03;;;;;;;5.03;3.70;;;15.50;99.90;;;;;;4924426;28;93331;-32
2022/07/29 06:28:28;;;;;;;7.75;3.08;;;15.50;99.90;;;;;;4918067;28;92126;-33
2022/07/29 06:30:54;;;;;;;3.20;2.78;;;15.60;99.90;;;;;;4919872;28;95687;-32
2022/07/29 06:33:20;;;;;;;5.32;3.55;;;15.70;99.90;;;;;;4918038;28;94460;-34
2022/07/29 06:35:47;;;;;;;5.90;2.80;;;15.70;99.90;;;;;;4918836;28;92567;-30
2022/07/29 06:38:13;;;;;;;4.45;3.45;;;15.70;99.90;;;;;;4917569;28;94685;-33
2022/07/29 06:43:42;;;;;;;4.28;2.78;;;15.70;99.90;;;;;;4894113;28;94830;-31
2022/07/29 06:46:11;;;;;;;4.28;2.72;;;15.80;99.90;;;;;;4918065;28;93381;-31
2022/07/29 06:48:37;;;;;;;3.63;3.25;;;15.80;99.90;;;;;;4918262;28;94506;-32
2022/07/29 06:51:04;;;;;;;4.65;3.42;;;15.90;99.90;;;;;;4918996;28;95874;-31
2022/07/29 06:53:30;;;;;;;4.00;2.85;;;15.90;99.90;;;;;;4917499;28;94527;-34
2022/07/29 06:55:58;;;;;;;6.18;3.35;;;15.90;99.90;;;;;;4917502;28;93961;-35
2022/07/29 06:58:23;;;;;;;5.57;2.63;;;15.90;99.90;;;;;;4916803;28;92554;-32
2022/07/29 07:00:49;;;;;;;3.30;2.92;;;15.90;99.90;;;;;;4917616;28;93941;-32
2022/07/29 07:03:16;;;;;;;2.50;2.20;;;16.00;99.90;;;;;;4917082;28;94208;-33
2022/07/29 07:05:41;;;;;;;6.60;3.20;;;16.00;99.90;;;;;;4917712;28;92716;-33
2022/07/29 07:08:07;;;;;;;3.20;2.78;;;16.10;99.90;;;;;;4916825;28;94372;-33
2022/07/29 07:10:33;;;;;;;3.85;3.45;;;16.10;99.90;;;;;;4917420;28;94604;-32
2022/07/29 07:13:00;;;;;;;6.78;2.88;;;16.20;99.90;;;;;;4918592;28;93418;-34
2022/07/29 07:15:26;;;;;;;4.55;3.50;;;16.30;99.90;;;;;;4918007;28;93097;-32
2022/07/29 07:17:52;;;;;;;6.55;3.15;;;16.30;99.90;;;;;;4929972;28;92618;-33
2022/07/29 07:20:18;;;;;;;3.05;2.65;;;16.40;99.90;;;;;;4925002;28;94636;-35
2022/07/29 07:22:44;;;;;;;3.47;2.78;;;16.40;99.90;;;;;;4923192;28;94902;-31
2022/07/29 07:25:10;;;;;;;4.03;2.83;;;16.40;99.90;;;;;;4904140;28;91564;-35
2022/07/29 07:27:37;;;;;;;4.28;3.17;;;16.40;99.90;;;;;;4922697;28;92242;-32
2022/07/29 07:30:06;;;;;;;3.38;2.95;;;16.50;99.90;;;;;;4922305;28;94880;-34
2022/07/29 07:32:33;;;;;;;4.50;3.28;;;16.50;99.90;;;;;;4922150;28;95420;-34
2022/07/29 07:34:59;;;;;;;3.17;2.88;;;16.60;99.90;;;;;;4920440;28;92552;-35
2022/07/29 07:37:25;;;;;;;3.38;2.75;;;16.70;99.90;;;;;;4917920;28;93810;-31
2022/07/29 07:39:52;;;;;;;4.00;2.30;;;16.70;99.90;;;;;;4919228;28;94643;-32
2022/07/29 07:42:18;;;;;;;10.32;3.83;;;16.70;99.90;;;;;;4918169;28;94077;-32
2022/07/29 07:44:45;;;;;;;3.53;3.15;;;16.80;99.90;;;;;;4917506;28;93564;-32
2022/07/29 07:47:12;;;;;;;4.07;2.70;;;16.80;99.90;;;;;;4916354;28;94185;-31
2022/07/29 07:49:38;;;;;;;3.92;2.67;;;16.90;99.90;;;;;;4917122;28;93886;-32
2022/07/29 07:52:04;;;;;;;5.15;2.83;;;16.90;99.90;;;;;;4916793;28;94395;-32
2022/07/29 07:54:30;;;;;;;3.42;3.13;;;16.90;99.90;;;;;;4916214;28;94260;-33
2022/07/29 07:56:56;;;;;;;3.88;3.22;;;16.90;99.90;;;;;;4915394;28;93978;-35
2022/07/29 07:59:21;;;;;;;4.35;3.55;;;16.90;99.90;;;;;;4916678;28;94824;-34
2022/07/29 08:01:47;;;;;;;4.28;3.20;;;17.00;99.90;;;;;;4915968;28;94534;-36
2022/07/29 08:04:13;;;;;;;9.98;3.75;;;17.10;99.90;;;;;;4916662;28;93272;-31
2022/07/29 08:06:38;;;;;;;5.40;3.67;;;17.20;99.90;;;;;;4915739;28;94465;-32
2022/07/29 08:09:04;;;;;;;9.23;2.92;;;17.30;99.90;;;;;;4916418;28;94948;-32
2022/07/29 08:11:31;;;;;;;2.75;2.28;;;17.40;99.90;;;;;;4916095;28;94646;-34
2022/07/29 08:13:57;;;;;;;3.95;3.17;;;17.40;99.90;;;;;;4916841;28;94538;-34
2022/07/29 08:16:24;;;;;;;8.60;3.10;;;17.50;99.90;;;;;;4916202;28;92324;-31
2022/07/29 08:18:51;;;;;;;3.47;2.63;;;17.50;99.90;;;;;;4916821;28;94560;-33
2022/07/29 08:21:18;;;;;;;4.57;3.40;;;17.60;99.90;;;;;;4915308;28;95293;-30
2022/07/29 08:23:46;;;;;;;3.83;3.03;;;17.60;99.90;;;;;;4917435;28;94567;-33
2022/07/29 08:26:13;;;;;;;7.38;3.95;;;17.60;99.90;;;;;;4915134;28;94395;-34
2022/07/29 08:28:41;;;;;;;3.67;3.15;;;17.70;99.90;;;;;;4917095;28;96352;-32
2022/07/29 08:31:07;;;;;;;4.43;3.65;;;17.60;99.90;;;;;;4916462;28;94623;-31
2022/07/29 08:33:33;;;;;;;3.33;3.10;;;17.70;99.90;;;;;;4917164;28;93718;-32
2022/07/29 08:35:59;;;;;;;5.60;2.60;;;17.70;99.90;;;;;;4911961;28;94289;-32
2022/07/29 08:38:25;;;;;;;6.22;3.63;;;17.70;99.90;;;;;;4916330;28;94687;-30
2022/07/29 08:40:52;;;;;;;3.88;3.17;;;17.70;99.90;;;;;;4915854;28;94117;-34
2022/07/29 08:43:18;;;;;;;8.32;4.15;;;17.80;99.90;;;;;;4915119;28;93741;-33
2022/07/29 08:45:49;;;;;;;5.15;3.42;;;17.80;99.90;;;;;;4928642;28;93609;-31
2022/07/29 08:48:17;;;;;;;3.97;2.65;;;17.80;99.90;;;;;;4928700;28;93283;-30
2022/07/29 08:50:44;;;;;;;6.22;2.92;;;17.80;99.90;;;;;;4929287;28;95224;-32
2022/07/29 08:53:12;;;;;;;3.42;3.13;;;17.80;99.90;;;;;;4925169;28;92282;-33
2022/07/29 08:55:43;;;;;;;4.88;2.92;;;17.90;99.90;;;;;;4916006;28;94106;-32
2022/07/29 08:58:09;;;;;;;11.13;3.72;;;17.90;99.90;;;;;;4919229;28;94629;-34
2022/07/29 09:00:37;;;;;;;3.83;2.92;;;18.00;99.90;;;;;;4915325;28;95469;-32
2022/07/29 09:03:04;;;;;;;5.05;3.42;;;18.00;99.90;;;;;;4920044;28;93912;-33
2022/07/29 09:05:32;;;;;;;7.38;4.70;;;18.20;99.90;;;;;;4914978;28;92704;-33
2022/07/29 09:07:58;;;;;;;10.00;3.80;;;18.20;99.90;;;;;;4915173;28;94575;-32
2022/07/29 09:10:24;;;;;;;10.32;3.65;;;18.30;99.90;;;;;;4914265;28;95299;-33
2022/07/29 09:12:50;;;;;;;4.90;3.50;;;18.30;99.90;;;;;;4915852;28;93427;-32
2022/07/29 09:15:17;;;;;;;2.70;2.53;;;18.40;99.90;;;;;;4914823;28;93640;-34
2022/07/29 09:17:48;;;;;;;11.65;4.40;;;18.40;99.90;;;;;;4897086;28;93808;-32
2022/07/29 09:20:19;;;;;;;3.45;3.13;;;18.50;99.90;;;;;;4914646;28;94960;-32
2022/07/29 09:22:49;;;;;;;4.55;3.03;;;18.50;99.90;;;;;;4918386;28;94290;-32
2022/07/29 09:25:38;;;;;;;2.90;2.58;;;18.60;99.90;;;;;;4918610;28;93352;-32
2022/07/29 09:28:08;;;;;;;7.78;4.13;;;18.60;99.90;;;;;;4920179;28;94117;-30
2022/07/29 09:30:34;;;;;;;4.95;2.92;;;18.70;99.90;;;;;;4916152;28;94164;-35
2022/07/29 09:33:02;;;;;;;4.07;3.33;;;18.80;99.90;;;;;;4916726;28;93342;-34
2022/07/29 09:35:29;;;;;;;3.95;3.60;;;18.90;99.90;;;;;;4899216;28;94501;-32
2022/07/29 09:37:55;;;;;;;6.13;3.67;;;19.00;99.90;;;;;;4920253;28;94308;-35
2022/07/29 09:40:26;;;;;;;4.00;3.63;;;19.00;99.90;;;;;;4928648;28;94848;-33
2022/07/29 09:42:55;;;;;;;4.55;3.17;;;19.10;99.90;;;;;;4929679;28;92872;-31
2022/07/29 09:45:32;;;;;;;4.35;2.95;;;19.20;99.90;;;;;;4929432;28;93256;-30
2022/07/29 09:48:03;;;;;;;4.30;3.10;;;19.20;99.90;;;;;;4923329;28;95795;-34
2022/07/29 09:50:55;;;;;;;3.33;3.03;;;19.30;99.90;;;;;;4925299;28;94548;-33
2022/07/29 09:53:33;;;;;;;3.50;2.78;;;19.30;99.90;;;;;;4926323;28;92925;-31
2022/07/29 09:55:59;;;;;;;6.38;3.22;;;19.40;99.90;;;;;;4922504;28;93355;-33
2022/07/29 09:58:25;;;;;;;4.15;3.33;;;19.30;99.90;;;;;;4917555;28;94133;-32
2022/07/29 10:00:52;;;;;;;5.65;3.10;;;19.30;99.90;;;;;;4918625;28;95025;-32
2022/07/29 10:03:18;;;;;;;4.87;3.00;;;19.30;99.90;;;;;;4921145;28;92848;-34
2022/07/29 10:05:45;;;;;;;5.32;3.05;;;19.30;99.90;;;;;;4925831;28;93030;-31
2022/07/29 10:08:12;;;;;;;2.47;2.15;;;19.30;99.90;;;;;;4924126;28;95291;-32
2022/07/29 10:10:46;;;;;;;2.78;2.58;;;19.30;99.90;;;;;;4925128;28;94823;-31
2022/07/29 10:13:13;;;;;;;4.00;2.92;;;19.30;99.90;;;;;;4920154;28;93614;-33
2022/07/29 10:15:43;;;;;;;4.88;4.03;;;19.30;99.90;;;;;;4918685;28;94605;-33
2022/07/29 10:18:10;;;;;;;3.45;2.90;;;19.40;99.90;;;;;;4919413;28;94064;-35
2022/07/29 10:20:37;;;;;;;9.15;3.10;;;19.40;99.90;;;;;;4918935;28;93780;-32
2022/07/29 10:23:03;;;;;;;6.30;4.10;;;19.50;99.90;;;;;;4918397;28;92603;-31
2022/07/29 10:25:29;;;;;;;3.20;2.88;;;19.40;99.90;;;;;;4919055;28;94723;-34
2022/07/29 10:27:54;;;;;;;7.13;3.03;;;19.40;99.90;;;;;;4919998;28;93585;-33
2022/07/29 10:30:22;;;;;;;3.50;2.83;;;19.50;99.90;;;;;;4920950;28;95211;-32
2022/07/29 10:33:14;;;;;;;6.38;3.75;;;19.50;99.90;;;;;;4922942;28;93203;-35
2022/07/29 10:35:54;;;;;;;3.30;3.03;;;19.40;99.90;;;;;;4921556;28;93585;-34
2022/07/29 10:38:51;;;;;;;3.40;2.90;;;19.40;99.90;;;;;;4918632;28;96582;-32
2022/07/29 10:41:46;;;;;;;3.20;2.90;;;19.40;99.90;;;;;;4917983;28;94506;-32
2022/07/29 10:44:20;;;;;;;4.70;4.22;;;19.30;99.90;;;;;;4864452;28;94450;-33
2022/07/29 10:46:46;;;;;;;4.15;2.85;;;19.30;99.90;;;;;;4920383;28;93936;-33
2022/07/29 10:49:26;;;;;;;5.13;3.72;;;19.20;99.90;;;;;;4916321;28;94727;-32
2022/07/29 10:52:04;;;;;;;4.45;3.08;;;19.20;99.90;;;;;;4917263;28;96388;-33
2022/07/29 10:55:01;;;;;;;4.97;3.08;;;19.20;99.90;;;;;;4917151;28;92283;-32
2022/07/29 10:57:31;;;;;;;5.03;3.70;;;19.20;99.90;;;;;;4907911;28;94066;-32
2022/07/29 11:00:13;;;;;;;17.30;3.90;;;19.20;99.90;;;;;;4923913;28;94885;-33
2022/07/29 11:02:44;;;;;;;7.03;3.30;;;19.10;99.90;;;;;;4915161;28;94611;-32
2022/07/29 11:05:19;;;;;;;3.15;2.83;;;19.10;99.90;;;;;;4928228;28;93105;-34
2022/07/29 11:08:12;;;;;;;3.42;3.15;;;19.10;99.90;;;;;;4928540;28;92973;-33
2022/07/29 11:10:38;;;;;;;3.88;3.47;;;19.10;99.90;;;;;;4919967;28;94416;-34
2022/07/29 11:13:04;;;;;;;6.40;3.40;;;19.10;99.90;;;;;;4926844;28;93693;-33
2022/07/29 11:15:53;;;;;;;4.97;3.45;;;19.00;99.90;;;;;;4927136;28;92845;-33
2022/07/29 11:18:19;;;;;;;4.78;3.17;;;19.10;99.90;;;;;;4919913;28;93111;-33
2022/07/29 11:20:50;;;;;;;5.20;2.97;;;19.10;99.90;;;;;;4917919;28;95509;-31
2022/07/29 11:23:39;;;;;;;4.75;2.92;;;19.10;99.90;;;;;;4922071;28;94328;-32
2022/07/29 11:26:21;;;;;;;4.72;3.55;;;19.20;99.90;;;;;;4916583;28;94374;-35
2022/07/29 11:28:56;;;;;;;5.30;3.97;;;19.20;99.90;;;;;;4899263;28;93155;-33
2022/07/29 11:31:43;;;;;;;4.38;3.85;;;19.20;99.90;;;;;;4916548;28;95406;-33
2022/07/29 11:34:32;;;;;;;6.60;3.97;;;19.30;99.90;;;;;;4921556;28;94692;-32
2022/07/29 11:37:10;;;;;;;4.60;4.18;;;19.30;99.90;;;;;;4928964;28;94015;-32
2022/07/29 11:40:00;;;;;;;5.28;3.22;;;19.30;99.90;;;;;;4925279;28;93454;-32
2022/07/29 11:42:26;;;;;;;9.82;3.78;;;19.40;99.90;;;;;;4913786;28;94755;-32
2022/07/29 11:44:57;;;;;;;9.02;4.18;;;19.40;99.90;;;;;;4922045;28;94641;-31
2022/07/29 11:47:24;;;;;;;9.88;4.00;;;19.40;99.90;;;;;;4927291;28;92935;-35
2022/07/29 11:49:51;;;;;;;5.35;4.15;;;19.50;99.90;;;;;;4922882;28;92575;-33
2022/07/29 11:52:18;;;;;;;8.35;3.47;;;19.60;99.90;;;;;;4920435;28;95203;-33
2022/07/29 11:54:45;;;;;;;5.00;3.80;;;19.70;99.90;;;;;;4916366;28;94854;-35
2022/07/29 11:57:10;;;;;;;4.30;3.90;;;19.70;99.90;;;;;;4920648;28;93993;-34
2022/07/29 11:59:44;;;;;;;4.15;3.80;;;19.70;99.90;;;;;;4917516;28;94403;-35
2022/07/29 12:02:10;;;;;;;4.05;3.30;;;19.80;99.90;;;;;;4915757;28;94279;-33
2022/07/29 12:04:56;;;;;;;7.28;4.07;;;19.90;99.90;;;;;;4915427;28;93857;-33
2022/07/29 12:07:32;;;;;;;8.88;3.85;;;20.00;99.90;;;;;;4916746;28;94134;-33
2022/07/29 12:09:57;;;;;;;8.85;5.03;;;20.00;99.90;;;;;;4915611;28;94085;-33
2022/07/29 12:12:24;;;;;;;7.25;4.43;;;20.10;99.90;;;;;;4923312;28;95066;-31
2022/07/29 12:14:50;;;;;;;6.50;4.63;;;20.20;99.90;;;;;;4959019;22;95748;-32
2022/07/29 12:17:33;;;;;;;7.97;4.50;;;20.30;99.90;;;;;;4915062;28;94805;-34
2022/07/29 12:20:04;;;;;;;4.28;3.88;;;20.40;99.90;;;;;;4915959;28;93285;-32
2022/07/29 12:22:33;;;;;;;9.55;3.75;;;20.40;99.90;;;;;;4915812;28;94833;-34
2022/07/29 12:25:05;;;;;;;6.20;3.65;;;20.50;99.90;;;;;;4920766;28;94507;-34
2022/07/29 12:27:31;;;;;;;16.13;4.13;;;20.50;99.90;;;;;;4916236;28;93519;-35
2022/07/29 12:30:00;;;;;;;5.15;4.22;;;20.50;99.90;;;;;;4919299;28;94171;-33
2022/07/29 12:32:44;;;;;;;4.78;3.45;;;20.50;99.90;;;;;;4915571;28;94343;-34
2022/07/29 12:35:11;;;;;;;5.95;3.97;;;20.60;99.90;;;;;;4918973;28;94512;-32
2022/07/29 12:37:38;;;;;;;5.35;4.35;;;20.70;99.90;;;;;;4920815;28;94088;-33
2022/07/29 12:40:06;;;;;;;12.13;4.82;;;20.80;99.90;;;;;;4917353;28;92628;-34
2022/07/29 12:42:31;;;;;;;4.43;3.67;;;20.90;99.90;;;;;;4917357;28;95023;-32
2022/07/29 12:44:57;;;;;;;4.38;3.80;;;21.00;99.90;;;;;;4914824;28;94532;-35
2022/07/29 12:47:23;;;;;;;4.90;3.78;;;21.10;99.90;;;;;;4919361;28;93062;-34
2022/07/29 12:49:50;;;;;;;6.43;4.68;;;21.10;99.90;;;;;;4916541;28;93324;-35
2022/07/29 12:52:27;;;;;;;7.22;4.32;;;21.10;99.90;;;;;;4920600;28;93932;-32
2022/07/29 12:54:53;;;;;;;5.00;3.50;;;21.20;99.90;;;;;;4916406;28;94160;-32
2022/07/29 12:57:18;;;;;;;3.90;3.08;;;21.20;99.90;;;;;;4916244;28;94228;-34
2022/07/29 12:59:44;;;;;;;4.35;3.28;;;21.20;99.90;;;;;;4917423;28;93986;-32
2022/07/29 13:02:22;;;;;;;4.40;4.00;;;21.30;99.90;;;;;;4917306;28;94874;-32
2022/07/29 13:04:59;;;;;;;6.97;4.78;;;21.30;99.90;;;;;;4914392;28;95869;-32
2022/07/29 13:07:26;;;;;;;6.85;4.72;;;21.40;99.90;;;;;;4916628;28;93514;-31
2022/07/29 13:09:53;;;;;;;4.05;3.65;;;21.50;99.90;;;;;;4919071;28;92249;-34
2022/07/29 13:12:20;;;;;;;9.10;3.95;;;21.60;99.90;;;;;;4917094;28;93782;-33
2022/07/29 13:14:48;;;;;;;5.07;4.63;;;21.60;99.90;;;;;;4914524;28;94572;-35
2022/07/29 13:17:27;;;;;;;14.05;4.10;;;21.70;99.90;;;;;;4890036;28;95164;-33
2022/07/29 13:20:06;;;;;;;5.05;4.60;;;21.90;99.90;;;;;;4945673;28;94628;-32
2022/07/29 13:22:32;;;;;;;5.65;3.35;;;22.10;99.90;;;;;;4934667;28;95501;-33
2022/07/29 13:25:01;;;;;;;5.75;4.07;;;22.20;99.90;;;;;;4934435;28;95856;-33
2022/07/29 13:27:29;;;;;;;5.10;3.35;;;22.30;99.90;;;;;;4936373;28;93374;-31
2022/07/29 13:29:57;;;;;;;6.25;3.88;;;22.20;99.90;;;;;;4938973;28;93090;-34
2022/07/29 13:32:24;;;;;;;;;;;22.30;99.90;;;;;;4936391;28;94436;-33
2022/07/29 13:34:49;;;;;;;5.22;4.15;;;22.30;99.90;;;;;;4935820;28;93804;-35
2022/07/29 13:37:16;;;;;;;6.88;3.63;;;22.30;99.90;;;;;;4935126;28;94729;-33
2022/07/29 13:39:42;;;;;;;7.35;3.90;;;22.30;99.90;;;;;;4934113;28;94189;-33
2022/07/29 13:42:08;;;;;;;7.43;4.25;;;22.30;99.90;;;;;;4937334;28;94217;-32
2022/07/29 13:44:34;;;;;;;3.97;3.60;;;22.20;99.90;;;;;;4934721;28;93766;-32
2022/07/29 13:47:00;;;;;;;6.00;3.42;;;22.20;99.90;;;;;;4933971;28;93239;-29
2022/07/29 13:49:27;;;;;;;3.80;3.50;;;22.10;99.90;;;;;;4913644;28;95275;-32
2022/07/29 13:51:53;;;;;;;6.82;3.20;;;22.20;99.90;;;;;;4933958;28;94934;-31
2022/07/29 13:54:18;;;;;;;5.57;3.78;;;22.30;99.90;;;;;;4934751;28;94315;-33
2022/07/29 13:56:44;;;;;;;6.97;5.28;;;22.40;99.90;;;;;;4933684;28;94192;-31
2022/07/29 13:59:10;;;;;;;5.07;4.55;;;22.50;99.90;;;;;;4933810;28;92132;-31
2022/07/29 14:01:36;;;;;;;5.75;3.90;;;22.60;99.90;;;;;;4933954;28;94341;-31
2022/07/29 14:04:02;;;;;;;5.53;3.83;;;22.60;99.90;;;;;;4932932;28;94462;-32
2022/07/29 14:06:27;;;;;;;5.03;4.20;;;22.60;99.90;;;;;;4935199;28;93820;-35
2022/07/29 14:08:53;;;;;;;4.28;3.72;;;22.60;99.90;;;;;;4937312;28;93817;-32
2022/07/29 14:11:19;;;;;;;3.65;3.33;;;22.60;99.90;;;;;;4933020;28;95368;-31
2022/07/29 14:13:44;;;;;;;5.60;3.75;;;22.60;99.90;;;;;;4901170;28;95300;-34
2022/07/29 14:16:10;;;;;;;3.40;3.10;;;22.60;99.90;;;;;;4914040;28;92285;-33
2022/07/29 14:18:36;;;;;;;5.03;3.92;;;22.60;99.90;;;;;;4927426;28;93272;-33
2022/07/29 14:21:02;;;;;;;3.72;3.33;;;22.60;99.90;;;;;;4932852;28;94681;-31
2022/07/29 14:23:27;;;;;;;5.90;4.22;;;22.60;99.90;;;;;;4933042;28;94060;-32
2022/07/29 14:25:53;;;;;;;5.10;3.33;;;22.70;99.90;;;;;;4935012;28;93617;-34
2022/07/29 14:28:18;;;;;;;7.95;3.45;;;22.70;99.90;;;;;;4934891;28;92624;-33
2022/07/29 14:30:44;;;;;;;6.53;3.78;;;22.70;99.90;;;;;;4936137;28;94046;-35
2022/07/29 14:33:10;;;;;;;4.97;4.30;;;22.70;99.90;;;;;;4925129;28;94193;-33
2022/07/29 14:35:35;;;;;;;4.13;3.72;;;22.70;99.90;;;;;;4918400;28;92519;-30
2022/07/29 14:38:01;;;;;;;15.45;4.72;;;22.70;99.90;;;;;;4919150;28;95543;-32
2022/07/29 14:40:27;;;;;;;3.50;2.97;;;22.60;99.90;;;;;;4918671;28;96279;-31